Time;durP1;ratioP1;P1;durP2;ratioP2;P2;SDS_P1;SDS_P2;PMS_P1;PMS_P2;Temp;Humidity;BMP_temperature;BMP_pressure;BME280_temperature;BME280_humidity;BME280_pressure;Samples;Min_cycle;Max_cycle;Signal;HPM_P1;HPM_P2
2021/12/23 00:02:07;;;;;;;0.30;0.10;;;-4.00;99.90;;;;;;5068192;28;20243;-84
2021/12/23 00:04:34;;;;;;;0.30;0.10;;;-3.90;99.90;;;;;;5067994;28;20220;-83
2021/12/23 00:07:01;;;;;;;2.63;2.15;;;-3.90;99.90;;;;;;5067988;28;20202;-83
2021/12/23 00:09:51;;;;;;;0.30;0.10;;;-3.90;99.90;;;;;;5065934;28;20251;-83
2021/12/23 00:12:18;;;;;;;0.30;0.10;;;-3.90;99.90;;;;;;5067063;28;20204;-83
2021/12/23 00:14:46;;;;;;;0.60;0.60;;;-3.90;99.90;;;;;;5053339;28;20206;-83
2021/12/23 00:17:22;;;;;;;0.30;0.10;;;-3.90;99.90;;;;;;5053051;28;20206;-85
2021/12/23 00:23:21;;;;;;;1.15;1.00;;;-3.90;99.90;;;;;;5054637;28;20198;-83
2021/12/23 00:25:21;;;;;;;0.30;0.10;;;-4.00;99.90;;;;;;5058469;28;20265;-82
2021/12/23 00:27:49;;;;;;;0.30;0.10;;;-4.00;99.90;;;;;;5061415;28;20237;-84
2021/12/23 00:30:16;;;;;;;0.30;0.10;;;-4.00;99.90;;;;;;5058217;28;20287;-83
2021/12/23 00:32:43;;;;;;;0.30;0.10;;;-4.10;99.90;;;;;;5065414;28;20201;-82
2021/12/23 00:35:11;;;;;;;0.30;0.10;;;-4.00;99.90;;;;;;5059066;28;20197;-84
2021/12/23 00:37:41;;;;;;;0.30;0.10;;;-4.00;99.90;;;;;;5068037;28;20225;-83
2021/12/23 00:40:12;;;;;;;1.05;0.90;;;-3.90;99.90;;;;;;5076682;28;20589;-84
2021/12/23 00:42:40;;;;;;;0.30;0.10;;;-3.90;99.90;;;;;;5070255;28;20227;-82
2021/12/23 00:45:09;;;;;;;0.30;0.20;;;-3.90;99.90;;;;;;5073278;28;20336;-83
2021/12/23 00:47:36;;;;;;;0.30;0.10;;;-3.90;99.90;;;;;;5064475;28;20199;-83
2021/12/23 00:50:04;;;;;;;0.75;0.75;;;-3.80;99.90;;;;;;5060653;28;20636;-84
2021/12/23 00:52:34;;;;;;;0.30;0.10;;;-3.80;99.90;;;;;;5065113;28;20185;-86
2021/12/23 00:55:02;;;;;;;0.45;0.45;;;-3.70;99.90;;;;;;5063582;28;20679;-82
2021/12/23 00:57:30;;;;;;;0.30;0.10;;;-3.70;99.90;;;;;;5057655;28;20349;-82
2021/12/23 01:00:00;;;;;;;0.30;0.20;;;-3.80;99.90;;;;;;5066714;28;20198;-85
2021/12/23 01:02:31;;;;;;;0.30;0.10;;;-3.90;99.90;;;;;;5058851;28;20251;-83
2021/12/23 01:04:59;;;;;;;0.30;0.10;;;-3.80;99.90;;;;;;5064830;28;20217;-82
2021/12/23 01:07:26;;;;;;;0.30;0.10;;;-3.80;99.90;;;;;;5059922;28;20204;-84
2021/12/23 01:09:53;;;;;;;0.30;0.10;;;-3.90;99.90;;;;;;5060284;28;20464;-84
2021/12/23 01:12:26;;;;;;;0.30;0.20;;;-4.00;99.90;;;;;;5050773;28;20206;-82
2021/12/23 01:14:57;;;;;;;0.30;0.10;;;-4.00;99.90;;;;;;5055991;28;20205;-83
2021/12/23 01:17:42;;;;;;;0.30;0.10;;;-3.90;99.90;;;;;;5051331;28;20234;-82
2021/12/23 01:20:20;;;;;;;0.30;0.10;;;-4.00;99.90;;;;;;5056079;28;20286;-86
2021/12/23 01:22:48;;;;;;;0.30;0.10;;;-4.10;99.90;;;;;;5057758;28;20259;-82
2021/12/23 01:25:17;;;;;;;0.30;0.10;;;-4.10;99.90;;;;;;5054053;28;20613;-85
2021/12/23 01:27:47;;;;;;;0.40;0.30;;;-4.00;99.90;;;;;;5056565;28;20238;-85
2021/12/23 01:30:15;;;;;;;0.30;0.10;;;-3.90;99.90;;;;;;5056338;28;20241;-84
2021/12/23 01:32:56;;;;;;;0.30;0.10;;;-4.00;99.90;;;;;;5061144;28;20320;-87
2021/12/23 01:35:32;;;;;;;0.30;0.10;;;-4.00;99.90;;;;;;5059493;28;20339;-84
2021/12/23 01:38:03;;;;;;;0.30;0.10;;;-4.00;99.90;;;;;;5055910;28;20237;-89
2021/12/23 01:40:30;;;;;;;0.30;0.10;;;-4.10;99.90;;;;;;5056629;28;20297;-86
2021/12/23 01:43:10;;;;;;;0.30;0.20;;;-4.10;99.90;;;;;;5057454;28;20255;-85
2021/12/23 01:45:44;;;;;;;0.30;0.10;;;-4.10;99.90;;;;;;5060381;28;20225;-85
2021/12/23 01:48:12;;;;;;;0.30;0.17;;;-4.10;99.90;;;;;;5056547;28;20193;-82
2021/12/23 01:50:46;;;;;;;0.30;0.10;;;-4.10;99.90;;;;;;5057461;28;20191;-85
2021/12/23 01:53:13;;;;;;;0.30;0.10;;;-4.00;99.90;;;;;;5066641;28;20235;-85
2021/12/23 01:55:42;;;;;;;0.30;0.10;;;-4.00;99.90;;;;;;5060783;28;20264;-85
2021/12/23 01:58:11;;;;;;;0.30;0.10;;;-4.00;99.90;;;;;;5057211;28;20668;-83
2021/12/23 02:00:42;;;;;;;0.82;0.82;;;-4.00;99.90;;;;;;5058246;28;20198;-85
2021/12/23 02:03:21;;;;;;;0.30;0.10;;;-3.90;99.90;;;;;;5056340;28;20720;-89
2021/12/23 02:05:57;;;;;;;1.10;1.10;;;-3.90;99.90;;;;;;5057508;28;20209;-85
2021/12/23 02:08:45;;;;;;;0.30;0.10;;;-3.80;99.90;;;;;;5063636;28;20304;-86
2021/12/23 02:11:14;;;;;;;0.40;0.40;;;-3.80;99.90;;;;;;5071532;28;20576;-83
2021/12/23 02:13:41;;;;;;;0.30;0.10;;;-3.80;99.90;;;;;;5081850;28;20194;-83
2021/12/23 02:16:08;;;;;;;7.80;1.95;;;-3.80;99.90;;;;;;5076930;28;20205;-82
2021/12/23 02:18:35;;;;;;;0.30;0.10;;;-3.90;99.90;;;;;;5072409;28;20198;-82
2021/12/23 02:21:06;;;;;;;0.30;0.10;;;-3.80;99.90;;;;;;5068627;28;20217;-83
2021/12/23 02:23:33;;;;;;;0.30;0.10;;;-3.80;99.90;;;;;;5067391;28;20636;-83
2021/12/23 02:26:00;;;;;;;0.30;0.20;;;-3.80;99.90;;;;;;5071311;28;20283;-84
2021/12/23 02:28:27;;;;;;;0.30;0.10;;;-3.70;99.90;;;;;;5061306;28;20198;-82
2021/12/23 02:30:55;;;;;;;0.30;0.10;;;-3.70;99.90;;;;;;5061591;28;20264;-85
2021/12/23 02:33:25;;;;;;;0.47;0.47;;;-3.70;99.90;;;;;;5054212;28;20195;-85
2021/12/23 02:35:53;;;;;;;0.30;0.10;;;-3.70;99.90;;;;;;5060950;28;20533;-83
2021/12/23 02:38:22;;;;;;;0.30;0.10;;;-3.80;99.90;;;;;;5058869;28;20222;-85
2021/12/23 02:40:49;;;;;;;0.30;0.10;;;-3.80;99.90;;;;;;5052646;28;20602;-85
2021/12/23 02:43:18;;;;;;;0.30;0.10;;;-4.00;99.90;;;;;;5056245;28;20265;-85
2021/12/23 02:45:47;;;;;;;0.30;0.20;;;-4.10;99.90;;;;;;5055222;28;20272;-85
2021/12/23 02:48:15;;;;;;;0.30;0.10;;;-4.00;99.90;;;;;;5054247;28;20210;-85
2021/12/23 02:50:45;;;;;;;1.25;1.15;;;-4.10;99.90;;;;;;5052769;28;20244;-86
2021/12/23 02:53:12;;;;;;;0.30;0.10;;;-4.10;99.90;;;;;;5060553;28;20617;-84
2021/12/23 02:55:41;;;;;;;0.30;0.20;;;-4.30;99.90;;;;;;5060930;28;20270;-83
2021/12/23 02:58:09;;;;;;;0.40;0.30;;;-4.30;99.90;;;;;;5055010;28;20598;-83
2021/12/23 03:00:37;;;;;;;0.30;0.20;;;-4.30;99.90;;;;;;5061089;28;20201;-83
2021/12/23 03:03:04;;;;;;;0.30;0.10;;;-4.40;99.90;;;;;;5063200;28;20251;-84
2021/12/23 03:05:31;;;;;;;0.30;0.10;;;-4.40;99.90;;;;;;5057079;28;20226;-85
2021/12/23 03:07:59;;;;;;;0.30;0.10;;;-4.30;99.90;;;;;;5054652;28;20198;-86
2021/12/23 03:10:26;;;;;;;0.30;0.10;;;-4.40;99.90;;;;;;5061628;28;20197;-83
2021/12/23 03:12:55;;;;;;;0.30;0.10;;;-4.40;99.90;;;;;;5059167;28;20260;-86
2021/12/23 03:15:22;;;;;;;1.55;1.45;;;-4.30;99.90;;;;;;5064935;28;20193;-85
2021/12/23 03:17:49;;;;;;;1.60;1.50;;;-4.30;99.90;;;;;;5066542;28;20209;-84
2021/12/23 03:20:17;;;;;;;0.30;0.10;;;-4.40;99.90;;;;;;5060865;28;20475;-86
2021/12/23 03:22:44;;;;;;;0.30;0.10;;;-4.40;99.90;;;;;;5064781;28;20248;-83
2021/12/23 03:25:11;;;;;;;0.40;0.20;;;-4.30;99.90;;;;;;5064798;28;20225;-84
2021/12/23 03:27:38;;;;;;;0.30;0.20;;;-4.20;99.90;;;;;;5060519;28;20784;-86
2021/12/23 03:30:09;;;;;;;0.30;0.20;;;-4.30;99.90;;;;;;5054465;28;20265;-84
2021/12/23 03:32:36;;;;;;;0.30;0.10;;;-4.30;99.90;;;;;;5053240;28;20206;-84
2021/12/23 03:35:03;;;;;;;0.50;0.43;;;-4.30;99.90;;;;;;5054377;28;20201;-83
2021/12/23 03:37:30;;;;;;;0.30;0.10;;;-4.30;99.90;;;;;;5061470;28;20221;-84
2021/12/23 03:39:57;;;;;;;0.30;0.10;;;-4.40;99.90;;;;;;5057482;28;21002;-84
2021/12/23 03:42:24;;;;;;;0.30;0.10;;;-4.40;99.90;;;;;;5059659;28;20733;-83
2021/12/23 03:44:51;;;;;;;2.42;1.10;;;-4.40;99.90;;;;;;5059089;28;20279;-85
2021/12/23 03:47:19;;;;;;;0.30;0.10;;;-4.40;99.90;;;;;;5067112;28;20206;-84
2021/12/23 03:49:46;;;;;;;0.30;0.10;;;-4.30;99.90;;;;;;5067682;28;20217;-86
2021/12/23 03:52:14;;;;;;;0.30;0.20;;;-4.40;99.90;;;;;;5072399;28;20193;-84
2021/12/23 03:54:40;;;;;;;0.30;0.20;;;-4.30;99.90;;;;;;5068095;28;20228;-84
2021/12/23 03:57:08;;;;;;;0.30;0.10;;;-4.40;99.90;;;;;;5065081;28;20722;-85
2021/12/23 03:59:35;;;;;;;0.30;0.20;;;-4.40;99.90;;;;;;5065477;28;20255;-84
2021/12/23 04:02:02;;;;;;;0.30;0.10;;;-4.50;99.90;;;;;;5065631;28;20717;-86
2021/12/23 04:04:31;;;;;;;0.30;0.10;;;-4.50;99.90;;;;;;5063636;28;20228;-84
2021/12/23 04:06:58;;;;;;;0.30;0.10;;;-4.50;99.90;;;;;;5055810;28;20222;-86
2021/12/23 04:09:25;;;;;;;0.30;0.10;;;-4.40;99.90;;;;;;5061690;28;20309;-84
2021/12/23 04:11:52;;;;;;;0.30;0.10;;;-4.50;99.90;;;;;;5064282;28;20193;-84
2021/12/23 04:14:19;;;;;;;0.30;0.10;;;-4.50;99.90;;;;;;5063067;28;20257;-83
2021/12/23 04:16:47;;;;;;;0.30;0.10;;;-4.50;99.90;;;;;;5063656;28;20254;-88
2021/12/23 04:19:14;;;;;;;0.30;0.20;;;-4.40;99.90;;;;;;5069569;28;20601;-83
2021/12/23 04:21:43;;;;;;;0.30;0.10;;;-4.30;99.90;;;;;;5062292;28;20244;-84
2021/12/23 04:24:11;;;;;;;0.30;0.10;;;-4.20;99.90;;;;;;5064388;28;20203;-84
2021/12/23 04:26:39;;;;;;;0.30;0.10;;;-4.10;99.90;;;;;;5066358;28;20270;-86
2021/12/23 04:29:07;;;;;;;0.30;0.15;;;-4.10;99.90;;;;;;5058810;28;20213;-85
2021/12/23 04:31:34;;;;;;;0.30;0.20;;;-4.20;99.90;;;;;;5063893;28;20190;-86
2021/12/23 04:34:02;;;;;;;0.30;0.10;;;-4.30;99.90;;;;;;5056945;28;20259;-84
2021/12/23 04:36:29;;;;;;;0.30;0.10;;;-4.30;99.90;;;;;;5053538;28;20649;-85
2021/12/23 04:38:59;;;;;;;0.30;0.20;;;-4.40;99.90;;;;;;5055571;28;20695;-83
2021/12/23 04:41:27;;;;;;;0.30;0.10;;;-4.20;99.90;;;;;;5056176;28;20281;-83
2021/12/23 04:43:54;;;;;;;0.30;0.10;;;-4.20;99.90;;;;;;5053108;28;20202;-86
2021/12/23 04:46:22;;;;;;;0.30;0.10;;;-4.20;99.90;;;;;;5054819;28;20222;-84
2021/12/23 04:48:49;;;;;;;0.30;0.10;;;-4.10;99.90;;;;;;5065696;28;20294;-85
2021/12/23 04:51:17;;;;;;;1.40;1.30;;;-4.10;99.90;;;;;;5062656;28;20201;-84
2021/12/23 04:53:45;;;;;;;0.30;0.10;;;-4.20;99.90;;;;;;5059134;28;20267;-83
2021/12/23 04:56:15;;;;;;;0.30;0.10;;;-4.10;99.90;;;;;;5055828;28;20262;-83
2021/12/23 04:58:42;;;;;;;0.35;0.17;;;-4.10;99.90;;;;;;5067177;28;20197;-83
2021/12/23 05:01:19;;;;;;;0.30;0.10;;;-4.10;99.90;;;;;;5059810;28;20227;-84
2021/12/23 05:03:47;;;;;;;0.30;0.20;;;-4.10;99.90;;;;;;5058331;28;20205;-84
2021/12/23 05:06:14;;;;;;;0.30;0.10;;;-4.10;99.90;;;;;;5065457;28;20961;-83
2021/12/23 05:08:41;;;;;;;0.47;0.47;;;-4.10;99.90;;;;;;5061801;28;20259;-83
2021/12/23 05:11:08;;;;;;;0.30;0.10;;;-4.10;99.90;;;;;;5075426;28;20547;-82
2021/12/23 05:13:36;;;;;;;0.30;0.10;;;-4.10;99.90;;;;;;5075433;28;20265;-82
2021/12/23 05:16:03;;;;;;;0.30;0.20;;;-4.20;99.90;;;;;;5063945;28;20778;-82
2021/12/23 05:18:30;;;;;;;0.30;0.10;;;-4.10;99.90;;;;;;5070569;28;20208;-85
2021/12/23 05:20:57;;;;;;;0.30;0.10;;;-4.10;99.90;;;;;;5074806;28;20255;-82
2021/12/23 05:23:24;;;;;;;0.68;0.68;;;-4.20;99.90;;;;;;5078491;28;20230;-83
2021/12/23 05:25:51;;;;;;;0.30;0.10;;;-4.20;99.90;;;;;;5071210;28;20226;-83
2021/12/23 05:28:18;;;;;;;0.30;0.10;;;-4.20;99.90;;;;;;5082038;28;20216;-83
2021/12/23 05:30:47;;;;;;;0.30;0.10;;;-4.30;99.90;;;;;;5081503;28;20210;-84
2021/12/23 05:33:14;;;;;;;0.30;0.10;;;-4.30;99.90;;;;;;5077802;28;20206;-85
2021/12/23 05:35:41;;;;;;;0.30;0.10;;;-4.40;99.90;;;;;;5066864;28;20545;-88
2021/12/23 05:38:08;;;;;;;0.30;0.10;;;-4.40;99.90;;;;;;5060060;28;20244;-90
2021/12/23 05:40:36;;;;;;;0.30;0.10;;;-4.30;99.90;;;;;;5054757;28;20205;-88
2021/12/23 05:43:04;;;;;;;0.30;0.10;;;-4.20;99.90;;;;;;5064677;28;20271;-86
2021/12/23 05:45:31;;;;;;;0.30;0.10;;;-4.10;99.90;;;;;;5073797;28;20197;-86
2021/12/23 05:47:59;;;;;;;0.30;0.10;;;-4.00;99.90;;;;;;5065179;28;20202;-86
2021/12/23 05:50:27;;;;;;;0.30;0.10;;;-4.00;99.90;;;;;;5052184;28;20202;-86
2021/12/23 05:52:54;;;;;;;0.30;0.10;;;-4.10;99.90;;;;;;5062691;28;20202;-86
2021/12/23 05:55:22;;;;;;;0.30;0.10;;;-4.00;99.90;;;;;;5076899;28;20275;-86
2021/12/23 05:57:50;;;;;;;0.30;0.10;;;-4.00;99.90;;;;;;5071502;28;20194;-86
2021/12/23 06:00:20;;;;;;;0.30;0.10;;;-4.10;99.90;;;;;;5071971;28;20197;-86
2021/12/23 06:02:47;;;;;;;0.30;0.10;;;-4.10;99.90;;;;;;5083835;28;20279;-86
2021/12/23 06:05:16;;;;;;;2.58;2.47;;;-4.00;99.90;;;;;;5053178;28;20194;-86
2021/12/23 06:07:43;;;;;;;0.30;0.10;;;-4.10;99.90;;;;;;5058333;28;20225;-86
2021/12/23 06:10:11;;;;;;;0.88;0.40;;;-4.20;99.90;;;;;;5072915;28;20271;-86
2021/12/23 06:12:38;;;;;;;0.30;0.10;;;-4.20;99.90;;;;;;5073104;28;20198;-86
2021/12/23 06:15:06;;;;;;;2.15;1.38;;;-4.10;99.90;;;;;;5071770;28;20198;-85
2021/12/23 06:17:33;;;;;;;0.30;0.10;;;-4.00;99.90;;;;;;5071891;28;20255;-86
2021/12/23 06:20:01;;;;;;;0.30;0.10;;;-4.10;99.90;;;;;;5071990;28;20274;-87
2021/12/23 06:22:29;;;;;;;0.30;0.10;;;-4.10;99.90;;;;;;5071504;28;20201;-86
2021/12/23 06:24:56;;;;;;;0.30;0.10;;;-4.10;99.90;;;;;;5072598;28;20586;-87
2021/12/23 06:27:23;;;;;;;0.30;0.10;;;-4.10;99.90;;;;;;5073149;28;20225;-86
2021/12/23 06:29:50;;;;;;;1.85;0.88;;;-4.00;99.90;;;;;;5072633;28;20201;-85
2021/12/23 06:32:17;;;;;;;0.30;0.10;;;-4.00;99.90;;;;;;5071789;28;20209;-86
2021/12/23 06:34:44;;;;;;;0.40;0.20;;;-4.10;99.90;;;;;;5072060;28;20201;-86
2021/12/23 06:37:11;;;;;;;0.47;0.47;;;-4.00;99.90;;;;;;5071322;28;20214;-86
2021/12/23 06:39:40;;;;;;;0.52;0.52;;;-4.10;99.90;;;;;;5072437;28;20202;-88
2021/12/23 06:42:08;;;;;;;0.30;0.10;;;-4.20;99.90;;;;;;5067578;28;20206;-87
2021/12/23 06:44:35;;;;;;;0.30;0.10;;;-4.10;99.90;;;;;;5071902;28;20198;-87
2021/12/23 06:47:02;;;;;;;0.85;0.55;;;-4.20;99.90;;;;;;5071664;28;20229;-86
2021/12/23 06:49:31;;;;;;;0.30;0.10;;;-4.20;99.90;;;;;;5070254;28;20264;-86
2021/12/23 06:51:59;;;;;;;0.30;0.10;;;-4.10;99.90;;;;;;5071706;28;20205;-86
2021/12/23 06:54:27;;;;;;;0.30;0.10;;;-4.10;99.90;;;;;;5063834;28;20750;-85
2021/12/23 06:56:55;;;;;;;0.30;0.10;;;-4.00;99.90;;;;;;5069077;28;20791;-86
2021/12/23 06:59:22;;;;;;;0.30;0.10;;;-4.00;99.90;;;;;;5063048;28;20267;-87
2021/12/23 07:01:49;;;;;;;0.30;0.10;;;-4.20;99.90;;;;;;5053978;28;20251;-85
2021/12/23 07:04:18;;;;;;;0.30;0.10;;;-4.20;99.90;;;;;;5059419;28;20220;-85
2021/12/23 07:06:55;;;;;;;1.13;1.02;;;-4.10;99.90;;;;;;5063846;28;20309;-86
2021/12/23 07:09:22;;;;;;;0.30;0.10;;;-4.00;99.90;;;;;;5070279;28;20225;-87
2021/12/23 07:11:49;;;;;;;0.30;0.10;;;-4.00;99.90;;;;;;5066200;28;20206;-85
2021/12/23 07:14:18;;;;;;;0.30;0.10;;;-4.00;99.90;;;;;;5069344;28;20205;-87
2021/12/23 07:16:45;;;;;;;0.30;0.10;;;-3.90;99.90;;;;;;5072101;28;20558;-88
2021/12/23 07:19:12;;;;;;;0.30;0.10;;;-4.10;99.90;;;;;;5071158;28;20194;-88
2021/12/23 07:21:39;;;;;;;1.05;0.88;;;-4.20;99.90;;;;;;5071445;28;20733;-88
2021/12/23 07:24:06;;;;;;;0.30;0.10;;;-4.00;99.90;;;;;;5068110;28;20201;-87
2021/12/23 07:26:33;;;;;;;1.55;1.55;;;-4.00;99.90;;;;;;5086536;28;20220;-88
2021/12/23 07:29:00;;;;;;;0.40;0.35;;;-3.90;99.90;;;;;;5063402;28;20205;-85
2021/12/23 07:31:29;;;;;;;0.30;0.10;;;-3.90;99.90;;;;;;5070611;28;20283;-85
2021/12/23 07:33:56;;;;;;;0.30;0.10;;;-3.80;99.90;;;;;;5070284;28;20599;-85
2021/12/23 07:36:27;;;;;;;1.23;1.23;;;-3.80;99.90;;;;;;5070039;28;20193;-85
2021/12/23 07:38:54;;;;;;;0.30;0.10;;;-3.60;99.90;;;;;;5070382;28;20290;-85
2021/12/23 07:41:21;;;;;;;0.30;0.10;;;-3.60;99.90;;;;;;5055511;28;20551;-85
2021/12/23 07:44:02;;;;;;;0.30;0.20;;;-3.70;99.90;;;;;;5069346;28;20206;-85
2021/12/23 07:46:33;;;;;;;0.30;0.10;;;-3.50;99.90;;;;;;5070019;28;20307;-85
2021/12/23 07:49:00;;;;;;;0.30;0.10;;;-3.50;99.90;;;;;;5070257;28;20550;-85
2021/12/23 07:51:27;;;;;;;0.40;0.30;;;-3.60;99.90;;;;;;5070801;28;20194;-85
2021/12/23 07:53:55;;;;;;;0.30;0.10;;;-3.50;99.90;;;;;;5070689;28;20202;-85
2021/12/23 07:56:23;;;;;;;4.13;1.23;;;-3.70;99.90;;;;;;5069701;28;20206;-86
2021/12/23 07:58:50;;;;;;;0.30;0.10;;;-3.60;99.90;;;;;;5064893;28;20244;-90
2021/12/23 08:01:18;;;;;;;0.30;0.10;;;-3.50;99.90;;;;;;5065013;28;20201;-84
2021/12/23 08:03:46;;;;;;;5.78;1.40;;;-3.50;99.90;;;;;;5069789;28;20208;-88
2021/12/23 08:06:13;;;;;;;0.30;0.10;;;-3.50;99.90;;;;;;5052455;28;20262;-84
2021/12/23 08:08:41;;;;;;;0.30;0.10;;;-3.30;99.90;;;;;;5054425;28;20251;-87
2021/12/23 08:11:08;;;;;;;0.30;0.10;;;-3.30;99.90;;;;;;5070151;28;21056;-85
2021/12/23 08:13:35;;;;;;;0.30;0.10;;;-3.30;99.90;;;;;;5070825;28;20249;-84
2021/12/23 08:16:03;;;;;;;0.30;0.10;;;-3.40;99.90;;;;;;5068419;28;20286;-86
2021/12/23 08:18:31;;;;;;;0.30;0.20;;;-3.40;99.90;;;;;;5068422;28;20644;-84
2021/12/23 08:21:01;;;;;;;0.30;0.10;;;-3.30;99.90;;;;;;5070046;28;20201;-87
2021/12/23 08:23:28;;;;;;;0.75;0.75;;;-3.30;99.90;;;;;;5070270;28;20189;-84
2021/12/23 08:25:55;;;;;;;0.30;0.10;;;-3.20;99.90;;;;;;5070401;28;20259;-86
2021/12/23 08:28:22;;;;;;;0.30;0.15;;;-3.40;99.90;;;;;;5069860;28;20224;-84
2021/12/23 08:30:49;;;;;;;0.30;0.10;;;-3.50;99.90;;;;;;5069605;28;20198;-84
2021/12/23 08:33:17;;;;;;;2.58;2.38;;;-3.50;99.90;;;;;;5062708;28;20193;-84
2021/12/23 08:35:44;;;;;;;0.90;0.90;;;-3.50;99.90;;;;;;5069640;28;20205;-84
2021/12/23 08:38:12;;;;;;;0.45;0.38;;;-3.40;99.90;;;;;;5070869;28;20229;-84
2021/12/23 08:40:39;;;;;;;0.60;0.60;;;-3.30;99.90;;;;;;5075783;28;20194;-89
2021/12/23 08:43:06;;;;;;;0.30;0.20;;;-3.10;99.90;;;;;;5066828;28;20252;-86
2021/12/23 08:45:35;;;;;;;0.30;0.10;;;-3.30;99.90;;;;;;5071242;28;20201;-87
2021/12/23 08:48:03;;;;;;;0.30;0.10;;;-3.30;99.90;;;;;;5073236;28;20240;-88
2021/12/23 08:50:32;;;;;;;0.30;0.20;;;-3.20;99.90;;;;;;5069944;28;20197;-87
2021/12/23 08:53:00;;;;;;;0.30;0.10;;;-3.10;99.90;;;;;;5070043;28;20202;-88
2021/12/23 08:55:31;;;;;;;0.30;0.20;;;-3.00;99.90;;;;;;5069459;28;20252;-85
2021/12/23 08:57:59;;;;;;;0.30;0.20;;;-2.90;99.90;;;;;;5058787;28;20212;-85
2021/12/23 09:00:29;;;;;;;0.30;0.10;;;-2.90;99.90;;;;;;5069135;28;20715;-85
2021/12/23 09:02:56;;;;;;;0.30;0.20;;;-2.80;99.90;;;;;;5070049;28;20343;-82
2021/12/23 09:05:23;;;;;;;0.30;0.20;;;-2.70;99.90;;;;;;5069498;28;20235;-82
2021/12/23 09:07:51;;;;;;;5.07;2.08;;;-2.90;99.90;;;;;;5067234;28;20583;-82
2021/12/23 09:10:19;;;;;;;0.30;0.10;;;-3.00;99.90;;;;;;5069579;28;20263;-83
2021/12/23 09:12:48;;;;;;;0.40;0.20;;;-2.90;99.90;;;;;;5068239;28;20782;-83
2021/12/23 09:15:16;;;;;;;0.30;0.10;;;-2.80;99.90;;;;;;5068901;28;20198;-83
2021/12/23 09:17:43;;;;;;;0.30;0.10;;;-2.70;99.90;;;;;;5068643;28;20528;-82
2021/12/23 09:20:12;;;;;;;0.40;0.30;;;-2.60;99.90;;;;;;5068592;28;20706;-82
2021/12/23 09:22:39;;;;;;;0.30;0.10;;;-2.60;99.90;;;;;;5067653;28;20593;-88
2021/12/23 09:25:11;;;;;;;0.30;0.10;;;-2.80;99.90;;;;;;5069688;28;20194;-83
2021/12/23 09:27:51;;;;;;;0.30;0.10;;;-3.00;99.90;;;;;;5069260;28;20735;-82
2021/12/23 09:33:04;;;;;;;0.30;0.20;;;-3.10;99.90;;;;;;5069919;28;20607;-82
2021/12/23 09:35:32;;;;;;;0.30;0.10;;;-2.80;99.90;;;;;;5069051;28;20551;-83
2021/12/23 09:38:00;;;;;;;0.30;0.20;;;-2.50;99.90;;;;;;5069082;28;20318;-83
2021/12/23 09:40:29;;;;;;;0.30;0.10;;;-2.50;99.90;;;;;;5066309;28;20232;-85
2021/12/23 09:43:00;;;;;;;0.30;0.10;;;-2.40;99.90;;;;;;5049810;28;20564;-83
2021/12/23 09:45:29;;;;;;;0.77;0.77;;;-2.60;99.90;;;;;;5060489;28;20263;-84
2021/12/23 09:48:01;;;;;;;0.30;0.10;;;-2.60;99.90;;;;;;5066445;28;20218;-83
2021/12/23 09:50:30;;;;;;;1.95;0.77;;;-2.60;99.90;;;;;;5067550;28;20201;-84
2021/12/23 09:53:02;;;;;;;0.30;0.20;;;-2.40;99.90;;;;;;5069707;28;20266;-83
2021/12/23 09:55:29;;;;;;;0.30;0.17;;;-2.50;99.90;;;;;;5071357;28;20398;-82
2021/12/23 09:57:59;;;;;;;0.30;0.10;;;-2.50;99.90;;;;;;5053966;28;20264;-82
2021/12/23 10:00:31;;;;;;;0.30;0.30;;;-2.50;99.90;;;;;;5052657;28;20301;-82
2021/12/23 10:02:58;;;;;;;0.30;0.20;;;-2.50;99.90;;;;;;5063052;28;20279;-82
2021/12/23 10:05:28;;;;;;;0.30;0.10;;;-2.40;99.90;;;;;;5067859;28;20199;-81
2021/12/23 10:07:56;;;;;;;0.30;0.10;;;-2.40;99.90;;;;;;5051388;28;20685;-82
2021/12/23 10:10:28;;;;;;;0.30;0.10;;;-2.30;99.90;;;;;;5068323;28;20216;-83
2021/12/23 10:33:13;;;;;;;0.30;0.10;;;-2.30;99.90;;;;;;5060943;28;20587;-82
2021/12/23 10:38:29;;;;;;;2.05;1.95;;;-2.40;99.90;;;;;;5072128;28;20236;-94
2021/12/23 10:40:58;;;;;;;0.30;0.10;;;-2.30;99.90;;;;;;5070178;28;20205;-89
2021/12/23 10:43:30;;;;;;;0.30;0.10;;;-2.20;99.90;;;;;;5072525;28;20250;-85
2021/12/23 10:46:04;;;;;;;0.30;0.10;;;-2.00;99.90;;;;;;5071239;28;20194;-86
2021/12/23 10:48:34;;;;;;;0.30;0.10;;;-2.00;99.90;;;;;;5069426;28;20201;-85
2021/12/23 10:51:06;;;;;;;0.30;0.10;;;-1.70;99.90;;;;;;5071430;28;20618;-85
2021/12/23 10:53:47;;;;;;;0.30;0.10;;;-1.60;99.90;;;;;;5066472;28;20649;-85
2021/12/23 10:59:08;;;;;;;0.40;0.20;;;-1.80;99.90;;;;;;5055512;28;20204;-83
2021/12/23 11:01:40;;;;;;;1.42;0.43;;;-1.70;99.90;;;;;;5071399;28;20186;-84
2021/12/23 11:04:10;;;;;;;0.30;0.10;;;-1.70;99.90;;;;;;5071547;28;20201;-85
2021/12/23 11:06:42;;;;;;;0.30;0.10;;;-1.60;99.90;;;;;;5070467;28;20281;-85
2021/12/23 11:09:31;;;;;;;0.30;0.10;;;-1.50;99.90;;;;;;5070331;28;20217;-84
2021/12/23 11:38:22;;;;;;;0.30;0.10;;;-1.50;99.90;;;;;;5060836;28;20278;-84
2021/12/23 11:40:56;;;;;;;0.30;0.10;;;-2.00;99.90;;;;;;5070669;28;20721;-84
2021/12/23 11:46:07;;;;;;;0.82;0.63;;;-2.00;99.90;;;;;;5047657;28;20226;-83
2021/12/23 11:48:41;;;;;;;0.30;0.10;;;-1.80;99.90;;;;;;5066345;28;20233;-83
2021/12/23 11:51:15;;;;;;;0.40;0.30;;;-1.80;99.90;;;;;;5063323;28;20229;-82
2021/12/23 11:53:47;;;;;;;0.30;0.10;;;-1.90;99.90;;;;;;5073835;28;20189;-82
2021/12/23 11:56:16;;;;;;;0.30;0.10;;;-1.80;99.90;;;;;;5080949;28;20217;-84
2021/12/23 11:58:45;;;;;;;0.30;0.10;;;-1.80;99.90;;;;;;5074937;28;20193;-84
2021/12/23 12:01:18;;;;;;;3.80;0.85;;;-1.80;99.90;;;;;;5076053;28;20190;-83
2021/12/23 12:04:01;;;;;;;0.40;0.40;;;-1.90;99.90;;;;;;5062262;28;20264;-83
2021/12/23 12:06:31;;;;;;;0.30;0.10;;;-1.90;99.90;;;;;;5061451;28;20205;-86
2021/12/23 12:09:13;;;;;;;0.30;0.10;;;-1.80;99.90;;;;;;5071118;28;20225;-84
2021/12/23 12:11:41;;;;;;;0.30;0.10;;;-1.50;99.90;;;;;;5070550;28;20247;-84
2021/12/23 12:14:34;;;;;;;0.30;0.10;;;-1.30;99.90;;;;;;5070746;28;20211;-83
2021/12/23 12:17:33;;;;;;;0.30;0.10;;;-1.20;99.90;;;;;;5069884;28;20245;-83
2021/12/23 12:20:07;;;;;;;0.30;0.10;;;-1.40;99.90;;;;;;5067090;28;20207;-83
2021/12/23 12:23:01;;;;;;;0.30;0.20;;;-1.20;99.90;;;;;;5059147;28;20241;-83
2021/12/23 12:26:05;;;;;;;0.30;0.10;;;-1.10;99.90;;;;;;5061034;28;20251;-82
2021/12/23 12:28:42;;;;;;;0.30;0.20;;;-1.00;99.90;;;;;;5068161;28;20221;-83
2021/12/23 12:31:13;;;;;;;0.30;0.10;;;-1.20;99.90;;;;;;5069795;28;20246;-84
2021/12/23 12:33:43;;;;;;;0.88;0.88;;;-1.30;99.90;;;;;;5060401;28;20766;-83
2021/12/23 12:36:12;;;;;;;0.30;0.10;;;-1.30;99.90;;;;;;5058147;28;20247;-84
2021/12/23 12:38:42;;;;;;;0.30;0.10;;;-1.30;99.90;;;;;;5068747;28;20225;-83
2021/12/23 12:41:14;;;;;;;0.30;0.10;;;-1.20;99.90;;;;;;5068981;28;20230;-83
2021/12/23 12:44:00;;;;;;;0.73;0.73;;;-1.20;99.90;;;;;;5067145;28;20217;-82
2021/12/23 12:46:57;;;;;;;0.30;0.10;;;-1.30;99.90;;;;;;5049084;28;20222;-83
2021/12/23 12:49:28;;;;;;;0.30;0.10;;;-1.20;99.90;;;;;;5049111;28;20309;-83
2021/12/23 12:52:06;;;;;;;0.30;0.20;;;-1.30;99.90;;;;;;5067854;28;20198;-83
2021/12/23 12:54:34;;;;;;;3.42;3.13;;;-1.40;99.90;;;;;;5069500;28;20206;-82
2021/12/23 12:57:05;;;;;;;0.68;0.40;;;-1.40;99.90;;;;;;5067783;28;20233;-83
2021/12/23 12:59:40;;;;;;;0.30;0.10;;;-1.30;99.90;;;;;;5069554;28;20205;-83
2021/12/23 13:02:20;;;;;;;0.30;0.22;;;-1.30;99.90;;;;;;5070043;28;20200;-84
2021/12/23 13:04:52;;;;;;;0.68;0.52;;;-1.20;99.90;;;;;;5069127;28;20209;-86
2021/12/23 13:07:26;;;;;;;0.30;0.20;;;-1.10;99.90;;;;;;5069305;28;20312;-84
2021/12/23 13:09:58;;;;;;;3.00;1.65;;;-1.00;99.90;;;;;;5059895;28;20197;-86
2021/12/23 13:12:45;;;;;;;0.47;0.40;;;-0.90;99.90;;;;;;5069523;28;20194;-87
2021/12/23 13:15:17;;;;;;;0.77;0.77;;;-0.60;99.90;;;;;;5050317;28;20196;-89
2021/12/23 13:17:56;;;;;;;0.30;0.10;;;-0.50;99.90;;;;;;5049565;28;20238;-89
2021/12/23 13:20:43;;;;;;;0.30;0.10;;;-0.60;99.90;;;;;;5052447;28;20198;-87
2021/12/23 13:23:18;;;;;;;0.30;0.10;;;-0.90;99.90;;;;;;5053255;28;20195;-87
2021/12/23 13:25:54;;;;;;;0.30;0.10;;;-1.10;99.90;;;;;;5068913;28;20204;-85
2021/12/23 13:28:34;;;;;;;2.15;0.85;;;-1.10;99.90;;;;;;5051377;28;20218;-88
2021/12/23 13:31:19;;;;;;;0.30;0.10;;;-1.10;99.90;;;;;;5074717;28;20209;-89
2021/12/23 13:33:51;;;;;;;0.30;0.10;;;-1.00;99.90;;;;;;5069612;28;20233;-93
2021/12/23 13:36:22;;;;;;;0.30;0.10;;;-1.00;99.90;;;;;;5078124;28;20541;-87
2021/12/23 13:38:55;;;;;;;2.47;0.93;;;-1.10;99.90;;;;;;5063336;28;20704;-89
2021/12/23 13:41:31;;;;;;;0.30;0.10;;;-1.30;99.90;;;;;;5065768;28;20199;-86
2021/12/23 13:44:03;;;;;;;0.30;0.10;;;-1.30;99.90;;;;;;5064088;28;20199;-87
2021/12/23 13:46:33;;;;;;;1.15;0.32;;;-1.30;99.90;;;;;;5062033;28;20698;-86
2021/12/23 13:49:07;;;;;;;0.30;0.10;;;-1.40;99.90;;;;;;5062013;28;20241;-86
2021/12/23 13:51:36;;;;;;;0.30;0.10;;;-1.30;99.90;;;;;;5063753;28;20198;-85
2021/12/23 13:54:12;;;;;;;0.30;0.20;;;-1.30;99.90;;;;;;5059699;28;20212;-86
2021/12/23 13:56:42;;;;;;;0.30;0.10;;;-1.30;99.90;;;;;;5054890;28;20204;-86
2021/12/23 13:59:17;;;;;;;0.90;0.63;;;-1.30;99.90;;;;;;5054797;28;20263;-88
2021/12/23 14:02:07;;;;;;;0.30;0.10;;;-1.40;99.90;;;;;;5057150;28;20198;-87
2021/12/23 14:04:40;;;;;;;0.30;0.10;;;-1.50;99.90;;;;;;5056472;28;20248;-87